createdAt,value
2022-12-11T00:00:48.240Z,62.00
2022-12-11T00:03:17.664Z,62.10
2022-12-11T00:05:45.874Z,62.10
2022-12-11T00:08:13.665Z,62.10
2022-12-11T00:10:47.089Z,62.00
2022-12-11T00:15:41.070Z,62.40
2022-12-11T00:18:12.183Z,62.40
2022-12-11T00:20:38.955Z,62.60
2022-12-11T00:23:05.799Z,62.60
2022-12-11T00:25:32.560Z,62.50
2022-12-11T00:27:59.435Z,62.40
2022-12-11T00:30:26.219Z,62.50
2022-12-11T00:32:53.015Z,62.40
2022-12-11T00:35:19.840Z,62.40
2022-12-11T00:37:46.624Z,62.50
2022-12-11T00:40:13.405Z,62.60
2022-12-11T00:42:40.187Z,62.80
2022-12-11T00:45:07.688Z,63.00
2022-12-11T00:50:01.861Z,62.90
2022-12-11T00:52:28.723Z,63.10
2022-12-11T00:54:55.668Z,63.40
2022-12-11T00:57:22.654Z,63.30
2022-12-11T00:59:49.678Z,63.40
2022-12-11T01:02:16.439Z,63.30
2022-12-11T01:07:10.499Z,63.10
2022-12-11T01:09:56.047Z,63.00
2022-12-11T01:12:22.911Z,62.90
2022-12-11T01:14:49.703Z,63.60
2022-12-11T01:17:16.483Z,62.90
2022-12-11T01:19:43.252Z,62.90
2022-12-11T01:22:10.032Z,62.90
2022-12-11T01:24:37.076Z,62.90
2022-12-11T01:27:04.319Z,63.40
2022-12-11T01:29:31.228Z,64.30
2022-12-11T01:31:58.040Z,63.50
2022-12-11T01:34:24.827Z,63.00
2022-12-11T01:36:52.790Z,63.60
2022-12-11T01:39:19.570Z,63.00
2022-12-11T01:41:46.440Z,63.50
2022-12-11T01:44:16.195Z,62.80
2022-12-11T01:46:43.545Z,63.40
2022-12-11T01:49:13.844Z,62.90
2022-12-11T01:51:58.544Z,63.60
2022-12-11T01:54:27.975Z,63.20
2022-12-11T01:56:57.630Z,63.70
2022-12-11T01:59:28.063Z,63.10
2022-12-11T02:02:11.104Z,63.60
2022-12-11T02:04:40.074Z,62.90
2022-12-11T02:07:06.903Z,63.40
2022-12-11T02:09:37.100Z,63.40
2022-12-11T02:12:31.261Z,62.90
2022-12-11T02:15:16.682Z,63.40
2022-12-11T02:17:52.584Z,63.00
2022-12-11T02:20:38.093Z,63.00
2022-12-11T02:23:26.144Z,63.10
2022-12-11T02:26:17.955Z,63.80
2022-12-11T02:28:50.607Z,63.00
2022-12-11T02:31:29.666Z,64.20
2022-12-11T02:34:03.308Z,62.90
2022-12-11T02:36:35.087Z,63.00
2022-12-11T02:39:04.093Z,63.60
2022-12-11T02:41:33.744Z,63.60
2022-12-11T02:44:02.467Z,63.70
2022-12-11T02:46:31.384Z,63.00
2022-12-11T02:48:58.679Z,63.70
2022-12-11T02:51:30.698Z,63.10
2022-12-11T02:53:59.431Z,63.70
2022-12-11T02:56:58.814Z,63.20
2022-12-11T02:59:39.508Z,63.70
2022-12-11T03:02:07.052Z,63.10
2022-12-11T03:04:36.236Z,64.40
2022-12-11T03:07:12.256Z,65.80
2022-12-11T03:09:41.385Z,64.70
2022-12-11T03:12:11.592Z,63.40
2022-12-11T03:14:40.700Z,64.10
2022-12-11T03:17:21.172Z,64.10
2022-12-11T03:20:12.573Z,64.00
2022-12-11T03:22:47.396Z,64.00
2022-12-11T03:25:22.261Z,63.40
2022-12-11T03:28:03.312Z,64.10
2022-12-11T03:30:33.719Z,64.90
2022-12-11T03:33:15.442Z,64.10
2022-12-11T03:35:51.499Z,64.30
2022-12-11T03:38:23.586Z,64.20
2022-12-11T03:40:54.623Z,64.20
2022-12-11T03:43:23.290Z,63.60
2022-12-11T03:45:52.136Z,64.10
2022-12-11T03:48:20.129Z,64.10
2022-12-11T03:50:48.696Z,64.10
2022-12-11T03:53:16.514Z,64.20
2022-12-11T03:55:43.686Z,63.80
2022-12-11T03:58:10.725Z,64.30
2022-12-11T04:00:38.378Z,63.90
2022-12-11T04:03:14.889Z,64.50
2022-12-11T04:05:47.660Z,64.40
2022-12-11T04:08:15.377Z,64.40
2022-12-11T04:10:42.525Z,64.40
2022-12-11T04:13:10.160Z,64.10
2022-12-11T04:15:38.007Z,64.00
2022-12-11T04:18:25.061Z,64.60
2022-12-11T04:21:14.549Z,64.50
2022-12-11T04:23:59.901Z,64.50
2022-12-11T04:26:27.092Z,64.10
2022-12-11T04:28:53.979Z,64.60
2022-12-11T04:31:22.414Z,64.10
2022-12-11T04:33:49.663Z,64.50
2022-12-11T04:36:17.039Z,64.10
2022-12-11T04:38:43.893Z,64.20
2022-12-11T04:41:12.452Z,64.80
2022-12-11T04:43:39.809Z,64.90
2022-12-11T04:46:09.410Z,64.30
2022-12-11T04:48:38.056Z,65.10
2022-12-11T04:51:05.879Z,65.10
2022-12-11T04:53:32.837Z,65.00
2022-12-11T04:55:59.728Z,64.50
2022-12-11T04:58:27.395Z,65.00
2022-12-11T05:00:54.211Z,65.20
2022-12-11T05:03:21.020Z,65.20
2022-12-11T05:05:52.740Z,65.20
2022-12-11T05:08:21.249Z,65.20
2022-12-11T05:11:03.032Z,65.10
2022-12-11T05:13:30.680Z,65.20
2022-12-11T05:15:58.033Z,65.10
2022-12-11T05:18:25.876Z,65.10
2022-12-11T05:21:04.436Z,65.30
2022-12-11T05:23:31.717Z,64.80
2022-12-11T05:26:04.372Z,65.10
2022-12-11T05:28:33.810Z,65.10
2022-12-11T05:31:03.725Z,65.30
2022-12-11T05:33:31.452Z,65.50
2022-12-11T05:35:58.619Z,65.40
2022-12-11T05:38:25.659Z,65.30
2022-12-11T05:41:04.096Z,65.50
2022-12-11T05:43:33.538Z,65.40
2022-12-11T05:46:13.020Z,65.40
2022-12-11T05:48:41.080Z,64.80
2022-12-11T05:51:08.403Z,65.30
2022-12-11T05:53:37.204Z,65.30
2022-12-11T05:56:04.798Z,65.40
2022-12-11T05:58:32.300Z,65.30
2022-12-11T06:01:00.560Z,65.30
2022-12-11T06:03:27.828Z,65.30
2022-12-11T06:05:54.777Z,65.40
2022-12-11T06:08:21.603Z,65.40
2022-12-11T06:10:49.700Z,65.10
2022-12-11T06:13:17.486Z,65.40
2022-12-11T06:15:44.603Z,65.30
2022-12-11T06:18:12.064Z,64.90
2022-12-11T06:20:40.187Z,65.30
2022-12-11T06:23:07.112Z,65.30
2022-12-11T06:25:34.068Z,64.80
2022-12-11T06:28:00.930Z,65.80
2022-12-11T06:30:38.530Z,65.40
2022-12-11T06:33:07.065Z,65.40
2022-12-11T06:35:40.097Z,65.50
2022-12-11T06:38:08.775Z,65.50
2022-12-11T06:40:35.610Z,65.50
2022-12-11T06:43:03.541Z,65.40
2022-12-11T06:45:30.864Z,65.50
2022-12-11T06:47:58.929Z,65.40
2022-12-11T06:50:26.374Z,65.40
2022-12-11T06:52:53.360Z,65.60
2022-12-11T06:55:20.243Z,65.60
2022-12-11T06:57:47.043Z,66.40
2022-12-11T07:00:15.482Z,65.20
2022-12-11T07:02:42.798Z,65.80
2022-12-11T07:05:10.087Z,65.80
2022-12-11T07:07:37.146Z,65.80
2022-12-11T07:10:08.342Z,65.70
2022-12-11T07:12:35.825Z,65.10
2022-12-11T07:15:03.132Z,65.60
2022-12-11T07:17:30.520Z,65.60
2022-12-11T07:19:57.452Z,65.60
2022-12-11T07:22:24.360Z,65.60
2022-12-11T07:24:51.200Z,65.70
2022-12-11T07:27:17.984Z,65.70
2022-12-11T07:29:45.337Z,65.70
2022-12-11T07:32:12.289Z,65.80
2022-12-11T07:34:39.313Z,65.90
2022-12-11T07:37:06.111Z,65.80
2022-12-11T07:39:33.196Z,65.90
2022-12-11T07:42:00.240Z,65.90
2022-12-11T07:44:27.100Z,65.80
2022-12-11T07:46:53.862Z,65.80
2022-12-11T07:49:20.732Z,65.90
2022-12-11T07:51:47.525Z,65.80
2022-12-11T07:54:17.022Z,65.60
2022-12-11T07:56:48.622Z,65.70
2022-12-11T07:59:21.061Z,65.80
2022-12-11T08:01:48.740Z,65.90
2022-12-11T08:04:15.986Z,65.70
2022-12-11T08:06:43.534Z,65.90
2022-12-11T08:09:18.921Z,65.80
2022-12-11T08:11:49.822Z,65.80
2022-12-11T08:14:16.763Z,65.70
2022-12-11T08:16:44.240Z,65.50
2022-12-11T08:19:12.650Z,65.80
2022-12-11T08:21:40.327Z,65.70
2022-12-11T08:24:08.624Z,65.60
2022-12-11T08:26:35.510Z,65.10
2022-12-11T08:29:03.105Z,65.60
2022-12-11T08:31:30.103Z,65.30
2022-12-11T08:33:57.611Z,65.80
2022-12-11T08:36:24.946Z,65.30
2022-12-11T08:38:53.767Z,65.90
2022-12-11T08:41:23.373Z,65.40
2022-12-11T08:43:52.915Z,66.00
2022-12-11T08:46:19.848Z,66.20
2022-12-11T08:48:46.822Z,65.60
2022-12-11T08:51:15.528Z,66.20
2022-12-11T08:53:42.890Z,69.40
2022-12-11T08:56:21.571Z,66.10
2022-12-11T08:58:48.488Z,66.00
2022-12-11T09:01:18.216Z,65.50
2022-12-11T09:03:45.301Z,65.50
2022-12-11T09:06:14.996Z,66.00
2022-12-11T09:08:47.190Z,66.30
2022-12-11T09:11:32.847Z,66.00
2022-12-11T09:14:06.862Z,65.90
2022-12-11T09:16:37.959Z,66.10
2022-12-11T09:19:06.823Z,66.10
2022-12-11T09:21:33.788Z,66.20
2022-12-11T09:24:01.945Z,66.20
2022-12-11T09:26:30.099Z,65.90
2022-12-11T09:28:57.076Z,66.30
2022-12-11T09:31:27.656Z,66.10
2022-12-11T09:33:56.657Z,66.00
2022-12-11T09:36:24.219Z,66.00
2022-12-11T09:38:51.439Z,65.80
2022-12-11T09:41:21.510Z,65.90
2022-12-11T09:43:54.396Z,66.00
2022-12-11T09:46:24.565Z,66.00
2022-12-11T09:48:53.711Z,66.40
2022-12-11T09:51:42.173Z,66.20
2022-12-11T09:54:13.365Z,66.20
2022-12-11T09:56:50.761Z,66.30
2022-12-11T09:59:53.230Z,66.50
2022-12-11T10:02:43.317Z,65.70
2022-12-11T10:05:29.832Z,66.30
2022-12-11T10:08:00.794Z,66.20
2022-12-11T10:10:44.034Z,66.20
2022-12-11T10:13:36.283Z,66.10
2022-12-11T10:16:18.978Z,66.30
2022-12-11T10:18:47.568Z,66.20
2022-12-11T10:21:18.988Z,66.30
2022-12-11T10:23:50.880Z,66.30
2022-12-11T10:26:20.063Z,66.50
2022-12-11T10:28:47.243Z,66.20
2022-12-11T10:31:35.402Z,66.20
2022-12-11T10:34:04.913Z,66.10
2022-12-11T10:36:36.513Z,65.90
2022-12-11T10:39:04.019Z,65.80
2022-12-11T10:41:39.808Z,65.60
2022-12-11T10:44:26.482Z,65.30
2022-12-11T10:47:04.499Z,65.10
2022-12-11T10:49:34.421Z,65.20
2022-12-11T10:52:09.314Z,65.20
2022-12-11T10:54:39.422Z,65.30
2022-12-11T10:57:09.064Z,65.30
2022-12-11T10:59:38.069Z,65.10
2022-12-11T11:02:07.548Z,65.00
2022-12-11T11:04:38.749Z,65.70
2022-12-11T11:07:16.859Z,65.00
2022-12-11T11:09:43.717Z,65.00
2022-12-11T11:12:21.300Z,64.80
2022-12-11T11:14:59.472Z,64.50
2022-12-11T11:17:29.583Z,64.60
2022-12-11T11:20:12.026Z,64.50
2022-12-11T11:22:48.392Z,64.80
2022-12-11T11:25:29.879Z,64.80
2022-12-11T11:27:59.895Z,64.80
2022-12-11T11:30:33.435Z,66.70
2022-12-11T11:33:14.330Z,65.10
2022-12-11T11:35:53.492Z,65.30
2022-12-11T11:38:23.960Z,65.40
2022-12-11T11:41:14.704Z,65.40
2022-12-11T11:43:54.358Z,65.40
2022-12-11T11:46:27.840Z,65.40
2022-12-11T11:49:07.784Z,65.30
2022-12-11T11:51:43.044Z,65.00
2022-12-11T11:54:31.542Z,64.90
2022-12-11T11:57:01.534Z,65.00
2022-12-11T11:59:47.200Z,65.00
2022-12-11T12:02:16.717Z,65.10
2022-12-11T12:04:45.187Z,64.60
2022-12-11T12:07:30.182Z,64.60
2022-12-11T12:10:10.208Z,64.40
2022-12-11T12:13:03.327Z,64.30
2022-12-11T12:15:43.827Z,64.40
2022-12-11T12:18:27.956Z,64.40
2022-12-11T12:21:00.188Z,64.50
2022-12-11T12:23:54.458Z,64.50
2022-12-11T12:26:29.246Z,64.70
2022-12-11T12:29:33.652Z,64.70
2022-12-11T12:32:32.684Z,64.70
2022-12-11T12:35:34.702Z,64.60
2022-12-11T12:38:14.802Z,64.40
2022-12-11T12:40:55.584Z,64.40
2022-12-11T12:43:37.352Z,64.20
2022-12-11T12:46:20.976Z,64.00
2022-12-11T12:48:49.357Z,63.80
2022-12-11T12:51:17.603Z,64.00
2022-12-11T12:53:55.503Z,64.20
2022-12-11T12:56:23.845Z,64.40
2022-12-11T12:58:50.834Z,64.40
2022-12-11T13:01:24.204Z,64.70
2022-12-11T13:04:05.744Z,64.70
2022-12-11T13:06:45.304Z,64.70
2022-12-11T13:09:17.471Z,64.70
2022-12-11T13:11:45.950Z,64.80
2022-12-11T13:14:15.562Z,65.00
2022-12-11T13:16:44.440Z,64.70
2022-12-11T13:19:27.963Z,65.20
2022-12-11T13:22:02.095Z,65.20
2022-12-11T13:24:31.901Z,65.30
2022-12-11T13:27:23.435Z,65.10
2022-12-11T13:29:50.414Z,65.00
2022-12-11T13:32:17.173Z,65.00
2022-12-11T13:34:59.023Z,64.80
2022-12-11T13:37:43.828Z,64.70
2022-12-11T13:40:27.497Z,64.60
2022-12-11T13:43:01.180Z,64.90
2022-12-11T13:45:34.665Z,65.00
2022-12-11T13:48:01.644Z,65.80
2022-12-11T13:50:34.284Z,65.10
2022-12-11T13:53:03.373Z,65.20
2022-12-11T13:55:33.088Z,67.00
2022-12-11T13:58:00.755Z,65.30
2022-12-11T14:00:32.151Z,65.30
2022-12-11T14:03:04.542Z,65.30
2022-12-11T14:05:31.568Z,65.30
2022-12-11T14:08:03.938Z,65.30
2022-12-11T14:10:33.030Z,65.50
2022-12-11T14:13:01.711Z,65.50
2022-12-11T14:15:29.889Z,65.30
2022-12-11T14:17:57.945Z,65.20
2022-12-11T14:20:33.252Z,65.10
2022-12-11T14:23:19.010Z,65.00
2022-12-11T14:25:59.915Z,64.90
2022-12-11T14:28:29.775Z,64.90
2022-12-11T14:30:59.647Z,64.90
2022-12-11T14:33:32.421Z,64.90
2022-12-11T14:36:00.351Z,64.90
2022-12-11T14:38:44.102Z,64.90
2022-12-11T14:41:19.541Z,64.80
2022-12-11T14:43:51.419Z,64.90
2022-12-11T14:46:28.886Z,64.90
2022-12-11T14:49:01.820Z,64.80
2022-12-11T14:51:33.688Z,64.70
2022-12-11T14:54:01.560Z,64.60
2022-12-11T14:56:30.181Z,64.40
2022-12-11T14:59:04.051Z,64.40
2022-12-11T15:01:36.199Z,64.30
2022-12-11T15:04:27.051Z,64.60
2022-12-11T15:06:53.820Z,65.20
2022-12-11T15:09:38.465Z,64.80
2022-12-11T15:12:14.174Z,64.70
2022-12-11T15:14:53.544Z,64.80
2022-12-11T15:17:21.548Z,64.90
2022-12-11T15:19:51.807Z,64.60
2022-12-11T15:22:23.828Z,64.60
2022-12-11T15:24:53.645Z,64.70
2022-12-11T15:27:36.807Z,64.70
2022-12-11T15:30:16.278Z,64.70
2022-12-11T15:32:43.124Z,64.70
2022-12-11T15:35:25.071Z,64.80
2022-12-11T15:37:53.921Z,65.00
2022-12-11T15:40:21.029Z,65.10
2022-12-11T15:42:49.309Z,65.10
2022-12-11T15:45:19.775Z,65.10
2022-12-11T15:47:47.660Z,65.10
2022-12-11T15:50:19.048Z,65.20
2022-12-11T15:52:46.556Z,65.00
2022-12-11T15:55:14.204Z,65.00
2022-12-11T15:57:55.811Z,65.20
2022-12-11T16:00:24.002Z,67.30
2022-12-11T16:02:52.035Z,65.20
2022-12-11T16:05:19.316Z,65.10
2022-12-11T16:07:46.260Z,65.20
2022-12-11T16:10:16.062Z,65.20
2022-12-11T16:12:43.408Z,65.10
2022-12-11T16:15:21.457Z,65.10
2022-12-11T16:17:49.871Z,65.10
2022-12-11T16:20:17.498Z,65.00
2022-12-11T16:22:44.681Z,65.00
2022-12-11T16:25:11.913Z,65.20
2022-12-11T16:27:38.966Z,65.10
2022-12-11T16:30:06.451Z,65.10
2022-12-11T16:32:33.400Z,65.10
2022-12-11T16:35:01.121Z,65.30
2022-12-11T16:37:28.132Z,65.10
2022-12-11T16:39:55.040Z,65.20
2022-12-11T16:42:21.855Z,65.30
2022-12-11T16:44:49.099Z,65.40
2022-12-11T16:47:16.051Z,65.30
2022-12-11T16:49:43.363Z,65.20
2022-12-11T16:52:10.721Z,65.80
2022-12-11T16:54:37.659Z,65.20
2022-12-11T16:57:04.604Z,65.20
2022-12-11T16:59:36.828Z,65.20
2022-12-11T17:02:05.006Z,65.20
2022-12-11T17:04:32.610Z,65.20
2022-12-11T17:06:59.426Z,65.20
2022-12-11T17:09:26.230Z,65.20
2022-12-11T17:11:53.824Z,65.20
2022-12-11T17:14:20.695Z,66.10
2022-12-11T17:16:48.192Z,65.30
2022-12-11T17:19:15.696Z,65.20
2022-12-11T17:21:45.896Z,65.20
2022-12-11T17:24:17.874Z,65.30
2022-12-11T17:26:44.647Z,65.20
2022-12-11T17:29:12.627Z,65.20
2022-12-11T17:31:39.649Z,65.00
2022-12-11T17:34:07.075Z,65.10
2022-12-11T17:36:34.312Z,65.00
2022-12-11T17:39:01.397Z,65.10
2022-12-11T17:41:28.351Z,65.20
2022-12-11T17:43:56.092Z,65.00
2022-12-11T17:46:23.364Z,65.00
2022-12-11T17:48:50.447Z,65.00
2022-12-11T17:51:21.999Z,64.90
2022-12-11T17:53:48.896Z,65.00
2022-12-11T17:56:16.379Z,65.00
2022-12-11T17:58:43.232Z,65.00
2022-12-11T18:01:12.319Z,65.00
2022-12-11T18:03:40.218Z,64.80
2022-12-11T18:06:12.837Z,64.70
2022-12-11T18:08:40.370Z,64.70
2022-12-11T18:11:09.990Z,64.70
2022-12-11T18:13:37.011Z,64.80
2022-12-11T18:16:10.212Z,64.40
2022-12-11T18:18:37.688Z,65.00
2022-12-11T18:21:05.244Z,65.10
2022-12-11T18:23:32.119Z,65.10
2022-12-11T18:25:58.980Z,65.20
2022-12-11T18:28:25.842Z,65.10
2022-12-11T18:30:53.477Z,65.10
2022-12-11T18:33:21.832Z,65.20
2022-12-11T18:35:50.498Z,65.10
2022-12-11T18:38:17.451Z,65.00
2022-12-11T18:40:44.252Z,65.00
2022-12-11T18:43:11.273Z,65.10
2022-12-11T18:45:42.077Z,65.10
2022-12-11T18:48:09.794Z,65.20
2022-12-11T18:50:36.621Z,65.10
2022-12-11T18:53:04.305Z,65.20
2022-12-11T18:55:32.298Z,65.20
2022-12-11T18:57:59.167Z,65.20
2022-12-11T19:00:26.589Z,65.20
2022-12-11T19:02:53.430Z,65.20
2022-12-11T19:05:20.297Z,65.10
2022-12-11T19:07:47.193Z,65.00
2022-12-11T19:10:14.377Z,64.90
2022-12-11T19:12:42.877Z,64.90
2022-12-11T19:15:10.938Z,64.90
2022-12-11T19:17:38.554Z,65.00
2022-12-11T19:20:32.253Z,65.10
2022-12-11T19:22:55.159Z,65.00
2022-12-11T19:25:21.982Z,64.90
2022-12-11T19:27:50.132Z,64.90
2022-12-11T19:30:17.225Z,64.90
2022-12-11T19:32:45.871Z,64.80
2022-12-11T19:35:14.510Z,64.70
2022-12-11T19:37:41.383Z,64.80
2022-12-11T19:40:09.457Z,64.80
2022-12-11T19:42:36.251Z,64.80
2022-12-11T19:45:03.732Z,64.70
2022-12-11T19:47:30.540Z,64.80
2022-12-11T19:49:57.330Z,64.70
2022-12-11T19:52:24.162Z,64.60
2022-12-11T19:54:51.270Z,64.60
2022-12-11T19:57:18.053Z,64.60
2022-12-11T19:59:44.952Z,64.70
2022-12-11T20:02:12.583Z,64.00
2022-12-11T20:04:39.623Z,64.60
2022-12-11T20:07:07.152Z,64.60
2022-12-11T20:09:33.948Z,64.50
2022-12-11T20:12:02.321Z,64.50
2022-12-11T20:14:29.455Z,64.50
2022-12-11T20:17:14.770Z,64.50
2022-12-11T20:19:42.275Z,64.60
2022-12-11T20:22:09.492Z,64.60
2022-12-11T20:24:36.684Z,64.50
2022-12-11T20:27:03.658Z,64.50
2022-12-11T20:29:30.636Z,64.50
2022-12-11T20:31:59.690Z,64.60
2022-12-11T20:34:27.118Z,64.60
2022-12-11T20:36:54.584Z,64.70
2022-12-11T20:39:21.491Z,64.60
2022-12-11T20:41:48.272Z,64.60
2022-12-11T20:44:15.092Z,64.70
2022-12-11T20:46:41.872Z,64.80
2022-12-11T20:49:12.863Z,64.80
2022-12-11T20:51:40.719Z,64.80
2022-12-11T20:54:07.547Z,64.90
2022-12-11T20:56:34.405Z,64.90
2022-12-11T20:59:01.312Z,65.00
2022-12-11T21:01:30.822Z,65.00
2022-12-11T21:03:58.583Z,65.00
2022-12-11T21:06:31.224Z,65.00
2022-12-11T21:09:03.162Z,65.00
2022-12-11T21:11:30.043Z,65.00
2022-12-11T21:13:56.903Z,65.10
2022-12-11T21:16:24.434Z,65.10
2022-12-11T21:18:51.975Z,65.20
2022-12-11T21:21:19.976Z,65.00
2022-12-11T21:23:46.776Z,65.10
2022-12-11T21:26:14.368Z,65.10
2022-12-11T21:28:41.764Z,65.00
2022-12-11T21:31:11.899Z,65.00
2022-12-11T21:33:39.115Z,65.00
2022-12-11T21:36:07.111Z,64.80
2022-12-11T21:38:33.986Z,64.70
2022-12-11T21:41:13.784Z,65.10
2022-12-11T21:44:12.948Z,64.90
2022-12-11T21:46:29.678Z,64.80
2022-12-11T21:48:56.521Z,64.80
2022-12-11T21:51:35.685Z,64.90
2022-12-11T21:54:06.312Z,64.80
2022-12-11T21:56:33.378Z,64.80
2022-12-11T21:59:01.545Z,64.90
2022-12-11T22:01:33.536Z,64.10
2022-12-11T22:04:00.749Z,64.70
2022-12-11T22:06:28.351Z,64.70
2022-12-11T22:08:56.211Z,64.70
2022-12-11T22:11:26.942Z,64.80
2022-12-11T22:13:54.027Z,65.10
2022-12-11T22:16:21.199Z,64.60
2022-12-11T22:18:48.271Z,64.60
2022-12-11T22:21:15.744Z,64.70
2022-12-11T22:23:43.423Z,64.60
2022-12-11T22:26:15.783Z,64.50
2022-12-11T22:28:42.692Z,64.60
2022-12-11T22:31:14.596Z,64.60
2022-12-11T22:33:41.419Z,64.70
2022-12-11T22:36:09.823Z,64.80
2022-12-11T22:38:36.859Z,64.60
2022-12-11T22:41:26.065Z,64.70
2022-12-11T22:43:53.912Z,64.40
2022-12-11T22:46:23.946Z,64.40
2022-12-11T22:48:51.324Z,64.30
2022-12-11T22:51:18.416Z,66.80
2022-12-11T22:53:45.292Z,64.40
2022-12-11T22:56:14.141Z,64.10
2022-12-11T22:58:42.320Z,64.00
2022-12-11T23:01:12.970Z,64.20
2022-12-11T23:03:40.573Z,64.30
2022-12-11T23:06:11.223Z,64.20
2022-12-11T23:08:39.453Z,64.20
2022-12-11T23:11:22.215Z,64.30
2022-12-11T23:13:49.018Z,64.20
2022-12-11T23:16:16.111Z,64.20
2022-12-11T23:18:43.524Z,64.20
2022-12-11T23:21:10.885Z,64.20
2022-12-11T23:23:37.996Z,64.20
2022-12-11T23:26:05.702Z,64.20
2022-12-11T23:28:32.499Z,64.20
2022-12-11T23:30:59.386Z,63.40
2022-12-11T23:33:26.459Z,64.10
2022-12-11T23:35:54.272Z,64.10
2022-12-11T23:38:21.127Z,64.10
2022-12-11T23:40:47.910Z,64.30
2022-12-11T23:43:14.811Z,64.40
2022-12-11T23:45:44.759Z,62.70
2022-12-11T23:48:12.703Z,64.60
2022-12-11T23:50:41.304Z,64.40
2022-12-11T23:53:08.311Z,64.30
2022-12-11T23:55:35.247Z,64.50
2022-12-11T23:58:02.019Z,64.70
